Riverview, Arkansas
Current Conditions -  °F | °C
As of 1:53 PM on Friday 24 Oct 2014 (Local Time) from KRUE Reporting Station
Few Clouds Few Clouds  
Wind Chill: 73°   Ceiling: Unl
Heat Index: 73°   Visibility: 8mi
Dew Point: 54°   Wind: 5mph
Humidity: 51%   Direction: NA
Pressure: 30.11"   Gusts: NA
Location:  35.227°N, 92.6879°W
Report Text: KRUE 241853Z AUTO VRB04KT 8SM FEW050 23/12 A3011 RMK AO2 SLP192 T02280122
Loading
Personal Weather Stations






























Interactive Weather Map
Tropical Storm Tracking
New forecast layout! Learn more

10-Day Weather Forecast

Advertisements
Track Severe Weather on mobile